Lähistön asemien METAR-raportit

 

EFJY - Jyvaskyla (mil/C, Finland
Etäisyys Sääasemalta: E 40km
Päivitetty: 14/12/2018 09:20
Heikko jäätävä, Tihku, Enimmäkseen pilvistä
Heikko jäätävä, Tihku, Enimmäkseen pilvistä
 Tuulen suunta LLo
Tuuli: LLo 7 km/h
Lämpötila: -5°C
Tuulen purevuus: -8°C
Kastepiste: -6°C
Ilmankosteus: 93%
Ilmanpaine: 1034 hPa
Yhteenveto: Heikko jäätävä, Tihku
Pilvisyys: Enimmäkseen pilvistä
Näkyvyys: 10 km
Pilvisyystiedot: Enimmäkseen pilvistä 122 m
2018/12/14 09:20 EFJY 140920Z 24004KT 190V290 9999 -FZDZ BKN004 M05/M06 Q1034
EFKU - Kuopio (mil/Civ), Finland
Etäisyys Sääasemalta: IKo 106km
Päivitetty: 14/12/2018 09:20
Lähistöllä Sadekuuroja, Pilvistä
Lähistöllä Sadekuuroja, Pilvistä
 Tuulen suunta E
Tuuli: E 6 km/h
Lämpötila: -5°C
Kastepiste: -7°C
Ilmankosteus: 86%
Ilmanpaine: 1034 hPa
Yhteenveto: Lähistöllä Sadekuuroja
Pilvisyys: Pilvistä
Näkyvyys: 10 km
Pilvisyystiedot: Pilvistä 213 m
2018/12/14 09:20 EFKU 140920Z 17003KT 9999 3000N VCSH OVC007 M05/M07 Q1034
EFHA - Halli (fin-Afb), Finland
Etäisyys Sääasemalta: ELo 113km
Päivitetty: 14/12/2018 09:20
Pilvistä
Pilvistä
 Tuulen suunta varies
Tuuli: varies 6 km/h
Lämpötila: -5°C
Kastepiste: -6°C
Ilmankosteus: 93%
Ilmanpaine: 1034 hPa
Pilvisyys: Pilvistä
Näkyvyys: 10 km
Pilvisyystiedot: Pilvistä 244 m
2018/12/14 09:20 EFHA 140920Z VRB03KT 200V290 9999 OVC008 M05/M06 Q1034
 
EFMI - Mikkeli, Finland
Etäisyys Sääasemalta: EKa 140km
Päivitetty: 14/12/2018 09:20
Pilvistä
Pilvistä
 Tuulen suunta Tyyntä
Tuuli: Tyyntä
Lämpötila: -6°C
Kastepiste: -8°C
Ilmankosteus: 86%
Ilmanpaine: 1035 hPa
Pilvisyys: Pilvistä
Näkyvyys: 10 km
Pilvisyystiedot: Pilvistä 305 m
2018/12/14 09:20 EFMI 140920Z AUTO 00000KT 9999 OVC010 M06/M08 Q1035
EFSI - Seinajoki-Ilmajo, Finland
Etäisyys Sääasemalta: L 150km
Päivitetty: 14/12/2018 09:20
Pilvistä
Pilvistä
 Tuulen suunta E
Tuuli: E 7 km/h
Lämpötila: -5°C
Tuulen purevuus: -8°C
Kastepiste: -6°C
Ilmankosteus: 93%
Ilmanpaine: 1034 hPa
Pilvisyys: Pilvistä
Näkyvyys: 7 km
Pilvisyystiedot: Pilvistä 122 m
2018/12/14 09:20 EFSI 140920Z AUTO 17004KT 140V220 7000 OVC004 M05/M06 Q1034
EFKK - Kruunupyy, Finland
Etäisyys Sääasemalta: Lu 170km
Päivitetty: 14/12/2018 09:20
Heikkoa Lumisadetta, Pilvistä
Heikkoa Lumisadetta, Pilvistä
 Tuulen suunta E
Tuuli: E 17 km/h
Lämpötila: -3°C
Tuulen purevuus: -8°C
Kastepiste: -4°C
Ilmankosteus: 93%
Ilmanpaine: 1033 hPa
Yhteenveto: Heikkoa Lumisadetta
Pilvisyys: Pilvistä
Näkyvyys: 10 km
Pilvisyystiedot: Pilvistä 518 m
2018/12/14 09:20 EFKK 140920Z AUTO 17009KT 9999 -SN OVC017 M03/M04 Q1033
 
EFSA - Savonlinna (aut), Finland
Etäisyys Sääasemalta: IKa 186km
Päivitetty: 14/12/2018 09:20
Pilvistä
Pilvistä
 Tuulen suunta EKa
Tuuli: EKa 4 km/h
Lämpötila: -6°C
Kastepiste: -8°C
Ilmankosteus: 86%
Ilmanpaine: 1035 hPa
Pilvisyys: Pilvistä
Näkyvyys: 8 km
Pilvisyystiedot: Pilvistä 396 m
2018/12/14 09:20 EFSA 140920Z AUTO 15002KT 8000 OVC013 M06/M08 Q1035
EFTP - Tampere/Pirkkala, Finland
Etäisyys Sääasemalta: Lo 187km
Päivitetty: 14/12/2018 09:50
Pilvistä
Pilvistä
 Tuulen suunta varies
Tuuli: varies 6 km/h
Lämpötila: -5°C
Kastepiste: -7°C
Ilmankosteus: 86%
Ilmanpaine: 1035 hPa
Pilvisyys: Pilvistä
Näkyvyys: 10 km
Pilvisyystiedot: Pilvistä 274 m
2018/12/14 09:50 EFTP 140950Z VRB03KT 050V140 9999 OVC009 M05/M07 Q1035
EFKI - Kajaani, Finland
Etäisyys Sääasemalta: PKo 192km
Päivitetty: 14/12/2018 09:20
Pilvistä
Pilvistä
 Tuulen suunta ELo
Tuuli: ELo 11 km/h
Lämpötila: -6°C
Tuulen purevuus: -11°C
Kastepiste: -7°C
Ilmankosteus: 93%
Ilmanpaine: 1032 hPa
Pilvisyys: Pilvistä
Näkyvyys: 10 km
Pilvisyystiedot: Pilvistä 122 m
2018/12/14 09:20 EFKI 140920Z AUTO 20006KT 170V230 9999 OVC004 M06/M07 Q1032
 
EFJO - Joensuu, Finland
Etäisyys Sääasemalta: I 196km
Päivitetty: 14/12/2018 09:20
Pilvistä
Pilvistä
 Tuulen suunta L
Tuuli: L 7 km/h
Lämpötila: -6°C
Tuulen purevuus: -10°C
Kastepiste: -8°C
Ilmankosteus: 86%
Ilmanpaine: 1034 hPa
Pilvisyys: Pilvistä
Näkyvyys: 10 km
Pilvisyystiedot: Pilvistä 274 m
2018/12/14 09:20 EFJO 140920Z 28004KT 240V310 9999 OVC009 M06/M08 Q1034